Latest Coastal Weather Observations for Bellambi

IDN60701

Issued at 9:55 pm EST Tuesday 30 September 2014 (issued every 10 minutes, with the page automatically refreshed every 10 minutes)

About coastal observations | Map of coastal stations | Coastal observations for NSW | Marine services | Other Formats
Station Details ID: 068228 Name: BELLAMBI AWS Lat: -34.37 Lon: 150.93 Height: 10.0 m
Data from the previous 72 hours. | See also: Recent months at Bellambi
Date/Time
EST
Temp

°C
Wind Pressure Rain
since 9am
mm
Weather Cloud Vis
km
Sea
Height
m
Swell
Dir
 
Speed
knots
Gust
knots
hPa Trend Height
m
Period
s
Dir
30/09:30pm 26.0 WNW 8 14 - - 0.0 - - - - - - -
30/09:00pm 25.4 NW 4 6 - - 0.0 - - - - - - -
30/08:30pm 26.1 NW 4 6 - - 0.0 - - - - - - -
30/08:00pm 26.1 NW 8 11 - - 0.0 - - - - - - -
30/07:30pm 26.9 NW 13 17 - - 0.0 - - - - - - -
30/07:00pm 27.0 NNW 14 18 - - 0.0 - - - - - - -
30/06:30pm 27.8 NNW 12 17 - - 0.0 - - - - - - -
30/06:00pm 28.7 NNW 15 23 - - 0.0 - - - - - - -
30/05:30pm 29.4 NNW 21 32 - - 0.0 - - - - - - -
30/05:29pm 29.7 NNW 22 32 - - 0.0 - - - - - - -
30/05:00pm 30.5 NW 12 23 - - 0.0 - - - - - - -
30/04:30pm 31.8 WNW 10 15 - - 0.0 - - - - - - -
30/04:00pm 31.9 NW 18 28 - - 0.0 - - - - - - -
30/03:30pm 31.9 NW 17 28 - - 0.0 - - - - - - -
30/03:23pm 32.2 WNW 16 23 - - 0.0 - - - - - - -
30/03:04pm 31.4 NNW 24 34 - - 0.0 - - - - - - -
30/03:00pm 31.3 NNW 26 34 - - 0.0 - - - - - - -
30/02:57pm 30.9 NNW 17 31 - - 0.0 - - - - - - -
30/02:30pm 32.5 NW 16 23 - - 0.0 - - - - - - -
30/02:00pm 32.5 NW 15 23 - - 0.0 - - - - - - -
30/01:39pm 31.6 NNW 17 27 - - 0.0 - - - - - - -
30/01:30pm 31.6 NNW 15 18 - - 0.0 - - - - - - -
30/01:14pm 31.2 N 19 30 - - 0.0 - - - - - - -
30/01:00pm 31.5 NNW 16 21 - - 0.0 - - - - - - -
30/12:30pm 30.5 NNW 16 24 - - 0.0 - - - - - - -
30/12:00pm 30.1 NNW 17 25 - - 0.0 - - - - - - -
30/11:30am 29.6 NNW 17 27 - - 0.0 - - - - - - -
30/11:00am 29.2 NNW 16 24 - - 0.0 - - - - - - -
30/10:30am 28.6 NNW 18 30 - - 0.0 - - - - - - -
30/10:10am 28.1 NNW 15 27 - - 0.0 - - - - - - -
30/10:00am 27.8 NNW 16 23 - - 0.0 - - - - - - -
30/09:30am 26.7 NNW 15 25 - - 0.0 - - - - - - -
30/09:26am 26.8 NNW 15 25 - - 0.0 - - - - - - -
30/09:00am 24.8 NNW 12 17 - - 0.0 - - - - - - -
30/08:30am 25.6 NNW 13 20 - - 0.0 - - - - - - -
30/08:00am 24.3 NW 10 14 - - 0.0 - - - - - - -
30/07:30am 21.0 WNW 13 15 - - 0.0 - - - - - - -
30/07:00am 20.7 WNW 12 16 - - 0.0 - - - - - - -
30/06:30am 20.7 WNW 12 15 - - 0.0 - - - - - - -
30/06:00am 19.2 WNW 13 16 - - 0.0 - - - - - - -
30/05:30am 17.2 NNW 7 10 - - 0.0 - - - - - - -
30/05:00am 17.6 NNW 3 6 - - 0.0 - - - - - - -
30/04:30am 16.1 CALM 0 3 - - 0.0 - - - - - - -
30/04:00am 15.2 N 3 4 - - 0.0 - - - - - - -
30/03:30am 15.2 NNE 3 5 - - 0.0 - - - - - - -
30/03:00am 14.8 N 2 4 - - 0.0 - - - - - - -
30/02:30am 15.6 N 3 4 - - 0.0 - - - - - - -
30/02:00am 15.6 NNW 4 5 - - 0.0 - - - - - - -
30/01:30am 15.8 NNW 4 5 - - 0.0 - - - - - - -
30/01:00am 16.2 NNW 5 6 - - 0.0 - - - - - - -
30/12:30am 16.3 N 4 5 - - 0.0 - - - - - - -
30/12:00am 16.7 N 6 8 - - 0.0 - - - - - - -
 
Date/Time
EST
Temp

°C
Wind Pressure Rain
since 9am
mm
Weather Cloud Vis
km
Sea
Height
m
Swell
Dir
 
Speed
knots
Gust
knots
hPa Trend Height
m
Period
s
Dir
29/11:30pm 16.8 N 7 8 - - 0.0 - - - - - - -
29/11:00pm 17.0 N 6 8 - - 0.0 - - - - - - -
29/10:30pm 17.0 N 5 6 - - 0.0 - - - - - - -
29/10:00pm 17.0 N 4 5 - - 0.0 - - - - - - -
29/09:30pm 16.9 NNW 2 5 - - 0.0 - - - - - - -
29/09:00pm 16.9 SW 2 5 - - 0.0 - - - - - - -
29/08:30pm 17.4 S 5 6 - - 0.0 - - - - - - -
29/08:00pm 17.5 SSW 4 7 - - 0.0 - - - - - - -
29/07:30pm 18.1 S 11 13 - - 0.0 - - - - - - -
29/07:00pm 18.4 S 14 16 - - 0.0 - - - - - - -
29/06:30pm 18.7 S 14 17 - - 0.0 - - - - - - -
29/06:00pm 18.8 SSW 15 19 - - 0.0 - - - - - - -
29/05:30pm 19.4 S 15 18 - - 0.0 - - - - - - -
29/05:16pm 20.3 S 15 22 - - 0.0 - - - - - - -
29/05:00pm 22.3 ENE 1 4 - - 0.0 - - - - - - -
29/04:30pm 22.7 NNE 5 7 - - 0.0 - - - - - - -
29/04:00pm 22.1 N 7 10 - - 0.0 - - - - - - -
29/03:30pm 22.2 N 4 6 - - 0.0 - - - - - - -
29/03:00pm 22.9 ENE 7 10 - - 0.0 - - - - - - -
29/02:30pm 23.1 E 10 13 - - 0.0 - - - - - - -
29/02:00pm 21.6 E 12 15 - - 0.0 - - - - - - -
29/01:30pm 22.1 E 11 15 - - 0.0 - - - - - - -
29/01:00pm 24.1 E 8 10 - - 0.0 - - - - - - -
29/12:30pm 23.5 NE 11 15 - - 0.0 - - - - - - -
29/12:00pm 23.4 NE 14 21 - - 0.0 - - - - - - -
29/11:30am 22.2 ENE 17 19 - - 0.0 - - - - - - -
29/11:00am 21.7 ENE 14 18 - - 0.0 - - - - - - -
29/10:30am 21.5 ENE 16 18 - - 0.0 - - - - - - -
29/10:00am 21.6 NE 14 16 - - 0.0 - - - - - - -
29/09:30am 21.2 NNE 12 15 - - 0.0 - - - - - - -
29/09:00am 20.6 NE 11 14 - - 0.0 - - - - - - -
29/08:30am 20.1 ENE 9 12 - - 0.0 - - - - - - -
29/08:00am 20.0 ESE 8 10 - - 0.0 - - - - - - -
29/07:30am 19.7 CALM 0 2 - - 0.0 - - - - - - -
29/07:00am 18.7 N 9 13 - - 0.0 - - - - - - -
29/06:30am 18.7 N 9 11 - - 0.0 - - - - - - -
29/06:00am 17.1 WNW 5 6 - - 0.0 - - - - - - -
29/05:30am 18.5 N 9 12 - - 0.0 - - - - - - -
29/05:00am 18.0 NNE 11 14 - - 0.0 - - - - - - -
29/04:30am 18.0 NNE 13 16 - - 0.0 - - - - - - -
29/04:00am 19.6 N 11 15 - - 0.0 - - - - - - -
29/03:30am 19.2 N 10 13 - - 0.0 - - - - - - -
29/03:00am 19.0 N 11 13 - - 0.0 - - - - - - -
29/02:30am 19.6 N 10 14 - - 0.0 - - - - - - -
29/02:00am 18.1 N 11 13 - - 0.0 - - - - - - -
29/01:30am 17.9 N 10 13 - - 0.0 - - - - - - -
29/01:00am 17.9 N 11 13 - - 0.0 - - - - - - -
29/12:30am 16.9 NNW 7 10 - - 0.0 - - - - - - -
29/12:00am 16.6 NW 5 7 - - 0.0 - - - - - - -
 
Date/Time
EST
Temp

°C
Wind Pressure Rain
since 9am
mm
Weather Cloud Vis
km
Sea
Height
m
Swell
Dir
 
Speed
knots
Gust
knots
hPa Trend Height
m
Period
s
Dir
28/11:30pm 17.8 N 6 7 - - 0.0 - - - - - - -
28/11:00pm 17.9 N 13 17 - - 0.0 - - - - - - -
28/10:30pm 16.9 NNW 5 8 - - 0.0 - - - - - - -
28/10:00pm 16.4 NW 6 8 - - 0.0 - - - - - - -
28/09:30pm 17.0 W 4 6 - - 0.0 - - - - - - -
28/09:00pm 17.8 NW 11 15 - - 0.0 - - - - - - -
28/08:30pm 16.8 NW 2 7 - - 0.0 - - - - - - -
28/08:00pm 18.1 WNW 6 9 - - 0.0 - - - - - - -
28/07:30pm 18.5 N 14 18 - - 0.0 - - - - - - -
28/07:00pm 18.4 NE 15 18 - - 0.0 - - - - - - -
28/06:30pm 18.7 N 17 20 - - 0.0 - - - - - - -
28/06:00pm 18.5 NNE 17 21 - - 0.0 - - - - - - -
28/05:30pm 18.8 NNE 20 26 - - 0.0 - - - - - - -
28/05:00pm 18.9 NNE 23 26 - - 0.0 - - - - - - -
28/04:30pm 19.0 NNE 24 30 - - 0.0 - - - - - - -
28/04:00pm 19.2 NE 25 30 - - 0.0 - - - - - - -
28/03:30pm 19.3 NE 25 29 - - 0.0 - - - - - - -
28/03:00pm 19.6 NE 24 29 - - 0.0 - - - - - - -
28/02:30pm 19.6 NE 25 29 - - 0.0 - - - - - - -
28/02:00pm 19.8 NE 23 28 - - 0.0 - - - - - - -
28/01:30pm 19.9 NE 22 26 - - 0.0 - - - - - - -
28/01:00pm 20.1 NE 21 24 - - 0.0 - - - - - - -
28/12:30pm 21.3 NE 16 20 - - 0.0 - - - - - - -
28/12:00pm 22.3 N 9 13 - - 0.0 - - - - - - -
28/11:30am 22.5 N 9 12 - - 0.0 - - - - - - -
28/11:00am 22.1 N 10 13 - - 0.0 - - - - - - -
28/10:30am 22.2 NW 10 12 - - 0.0 - - - - - - -
28/10:00am 21.2 WNW 11 15 - - 0.0 - - - - - - -
28/09:30am 20.5 N 7 11 - - 0.0 - - - - - - -
28/09:00am 19.5 N 6 9 - - 0.0 - - - - - - -
28/08:30am 19.1 NNE 5 10 - - 0.0 - - - - - - -
28/08:00am 17.9 NNW 4 7 - - 0.0 - - - - - - -
28/07:30am 17.2 CALM 0 3 - - 0.0 - - - - - - -
28/07:00am 16.1 NW 3 7 - - 0.0 - - - - - - -
28/06:30am 14.8 WNW 2 6 - - 0.0 - - - - - - -
28/06:00am 14.0 WNW 5 8 - - 0.0 - - - - - - -
28/05:30am 13.8 NNW 3 7 - - 0.0 - - - - - - -
28/05:00am 13.6 WNW 4 6 - - 0.0 - - - - - - -
28/04:30am 13.4 WNW 4 6 - - 0.0 - - - - - - -
28/04:00am 13.6 NNW 3 7 - - 0.0 - - - - - - -
28/03:30am 13.5 WNW 5 8 - - 0.0 - - - - - - -
28/03:00am 14.1 N 2 6 - - 0.0 - - - - - - -
28/02:30am 13.6 NW 6 7 - - 0.0 - - - - - - -
28/02:00am 13.8 NW 8 11 - - 0.0 - - - - - - -
28/01:30am 13.5 WNW 7 9 - - 0.0 - - - - - - -
28/01:00am 14.2 NW 9 11 - - 0.0 - - - - - - -
28/12:30am 13.7 NW 5 7 - - 0.0 - - - - - - -
28/12:00am 13.9 NW 5 6 - - 0.0 - - - - - - -
 
Date/Time
EST
Temp

°C
Wind Pressure Rain
since 9am
mm
Weather Cloud Vis
km
Sea
Height
m
Swell
Dir
 
Speed
knots
Gust
knots
hPa Trend Height
m
Period
s
Dir
27/11:30pm 13.6 NW 6 8 - - 0.0 - - - - - - -
27/11:00pm 13.7 NW 5 7 - - 0.0 - - - - - - -
27/10:30pm 13.7 NW 5 7 - - 0.0 - - - - - - -
27/10:00pm 13.7 NW 6 8 - - 0.0 - - - - - - -

Other Formats:

Comma delimited format used in spreadsheet applications
http://www.bom.gov.au/fwo/IDN60701/IDN60701.94749.axf

JavaScript Object Notation format (JSON) in row-major order
http://www.bom.gov.au/fwo/IDN60701/IDN60701.94749.json